sensor_id;sensor_type;location;lat;lon;timestamp;pressure;altitude;pressure_sealevel;temperature;humidity
20444;BME280;10381;53.730;10.010;2023-08-06T00:01:47;100076.06;;;14.65;100.00
20444;BME280;10381;53.730;10.010;2023-08-06T00:05:47;100096.09;;;14.61;100.00
20444;BME280;10381;53.730;10.010;2023-08-06T00:09:47;100104.78;;;14.55;100.00
20444;BME280;10381;53.730;10.010;2023-08-06T00:13:48;100116.31;;;14.47;100.00
20444;BME280;10381;53.730;10.010;2023-08-06T00:17:48;100122.25;;;14.34;100.00
20444;BME280;10381;53.730;10.010;2023-08-06T00:21:48;100121.53;;;14.40;100.00
20444;BME280;10381;53.730;10.010;2023-08-06T00:25:49;100109.56;;;14.36;100.00
20444;BME280;10381;53.730;10.010;2023-08-06T00:29:49;100093.59;;;14.36;100.00
20444;BME280;10381;53.730;10.010;2023-08-06T00:33:49;100094.25;;;14.38;100.00
20444;BME280;10381;53.730;10.010;2023-08-06T00:37:49;100056.81;;;14.32;100.00
20444;BME280;10381;53.730;10.010;2023-08-06T00:41:50;100020.09;;;14.19;100.00
20444;BME280;10381;53.730;10.010;2023-08-06T00:45:50;99930.66;;;14.39;100.00
20444;BME280;10381;53.730;10.010;2023-08-06T00:49:51;99855.41;;;14.52;100.00
20444;BME280;10381;53.730;10.010;2023-08-06T00:53:52;99615.13;;;14.48;100.00
20444;BME280;10381;53.730;10.010;2023-08-06T00:57:53;99385.47;;;14.38;100.00
20444;BME280;10381;53.730;10.010;2023-08-06T01:01:56;98989.28;;;14.32;100.00
20444;BME280;10381;53.730;10.010;2023-08-06T01:05:56;99059.19;;;14.34;100.00
20444;BME280;10381;53.730;10.010;2023-08-06T01:10:28;99102.03;;;14.39;100.00
20444;BME280;10381;53.730;10.010;2023-08-06T01:14:37;99121.69;;;14.32;100.00
20444;BME280;10381;53.730;10.010;2023-08-06T01:18:43;99124.97;;;14.34;100.00
20444;BME280;10381;53.730;10.010;2023-08-06T01:22:46;99144.19;;;14.22;100.00
20444;BME280;10381;53.730;10.010;2023-08-06T01:26:56;99146.66;;;14.24;100.00
20444;BME280;10381;53.730;10.010;2023-08-06T01:31:01;99154.16;;;14.14;100.00
20444;BME280;10381;53.730;10.010;2023-08-06T01:35:03;99140.69;;;14.22;100.00
20444;BME280;10381;53.730;10.010;2023-08-06T01:39:04;99129.22;;;14.28;100.00
20444;BME280;10381;53.730;10.010;2023-08-06T01:43:05;99134.75;;;14.20;100.00
20444;BME280;10381;53.730;10.010;2023-08-06T01:47:05;99133.09;;;14.19;100.00
20444;BME280;10381;53.730;10.010;2023-08-06T01:51:06;99129.38;;;14.13;100.00
20444;BME280;10381;53.730;10.010;2023-08-06T01:55:06;99123.66;;;14.10;100.00
20444;BME280;10381;53.730;10.010;2023-08-06T01:59:07;99120.78;;;14.11;100.00
20444;BME280;10381;53.730;10.010;2023-08-06T02:03:07;99100.69;;;14.09;100.00
20444;BME280;10381;53.730;10.010;2023-08-06T02:07:07;99104.97;;;14.03;100.00
20444;BME280;10381;53.730;10.010;2023-08-06T02:11:08;99092.66;;;13.95;100.00
20444;BME280;10381;53.730;10.010;2023-08-06T02:15:08;99103.91;;;13.97;100.00
20444;BME280;10381;53.730;10.010;2023-08-06T02:19:09;99109.63;;;13.88;100.00
20444;BME280;10381;53.730;10.010;2023-08-06T02:23:09;99108.78;;;13.87;100.00
20444;BME280;10381;53.730;10.010;2023-08-06T02:27:09;99113.50;;;13.85;100.00
20444;BME280;10381;53.730;10.010;2023-08-06T02:31:09;99099.59;;;13.83;100.00
20444;BME280;10381;53.730;10.010;2023-08-06T02:35:10;99093.19;;;13.77;100.00
20444;BME280;10381;53.730;10.010;2023-08-06T02:39:10;99082.94;;;13.74;100.00
20444;BME280;10381;53.730;10.010;2023-08-06T02:43:10;99080.66;;;13.64;100.00
20444;BME280;10381;53.730;10.010;2023-08-06T02:47:11;99064.88;;;13.63;100.00
20444;BME280;10381;53.730;10.010;2023-08-06T02:51:11;99061.16;;;13.57;100.00
20444;BME280;10381;53.730;10.010;2023-08-06T02:55:11;99058.09;;;13.60;100.00
20444;BME280;10381;53.730;10.010;2023-08-06T02:59:12;99052.16;;;13.58;100.00
20444;BME280;10381;53.730;10.010;2023-08-06T03:03:13;99039.25;;;13.55;100.00
20444;BME280;10381;53.730;10.010;2023-08-06T03:07:13;99036.78;;;13.54;100.00
20444;BME280;10381;53.730;10.010;2023-08-06T03:11:13;99040.06;;;13.56;100.00
20444;BME280;10381;53.730;10.010;2023-08-06T03:15:14;99033.72;;;13.50;100.00
20444;BME280;10381;53.730;10.010;2023-08-06T03:19:14;99029.63;;;13.48;100.00
20444;BME280;10381;53.730;10.010;2023-08-06T03:23:15;99024.88;;;13.43;100.00
20444;BME280;10381;53.730;10.010;2023-08-06T03:27:15;99031.19;;;13.42;100.00
20444;BME280;10381;53.730;10.010;2023-08-06T03:31:15;99026.28;;;13.39;100.00
20444;BME280;10381;53.730;10.010;2023-08-06T03:35:16;99017.06;;;13.35;100.00
20444;BME280;10381;53.730;10.010;2023-08-06T03:39:16;99012.34;;;13.37;100.00
20444;BME280;10381;53.730;10.010;2023-08-06T03:43:16;99008.06;;;13.36;100.00
20444;BME280;10381;53.730;10.010;2023-08-06T03:47:17;98998.06;;;13.38;100.00
20444;BME280;10381;53.730;10.010;2023-08-06T03:51:17;98992.97;;;13.43;100.00
20444;BME280;10381;53.730;10.010;2023-08-06T03:55:17;98991.13;;;13.43;100.00
20444;BME280;10381;53.730;10.010;2023-08-06T03:59:17;98995.19;;;13.39;100.00
20444;BME280;10381;53.730;10.010;2023-08-06T04:03:18;98989.50;;;13.42;100.00
20444;BME280;10381;53.730;10.010;2023-08-06T04:07:18;98988.44;;;13.43;100.00
20444;BME280;10381;53.730;10.010;2023-08-06T04:11:18;98989.84;;;13.39;100.00
20444;BME280;10381;53.730;10.010;2023-08-06T04:15:18;98985.38;;;13.40;100.00
20444;BME280;10381;53.730;10.010;2023-08-06T04:19:19;98979.66;;;13.43;100.00
20444;BME280;10381;53.730;10.010;2023-08-06T04:23:19;98978.25;;;13.47;100.00
20444;BME280;10381;53.730;10.010;2023-08-06T04:27:19;98985.59;;;13.45;100.00
20444;BME280;10381;53.730;10.010;2023-08-06T04:31:21;98987.22;;;13.46;100.00
20444;BME280;10381;53.730;10.010;2023-08-06T04:35:21;98991.94;;;13.44;100.00
20444;BME280;10381;53.730;10.010;2023-08-06T04:39:22;98991.75;;;13.46;100.00
20444;BME280;10381;53.730;10.010;2023-08-06T04:43:22;98995.22;;;13.46;100.00
20444;BME280;10381;53.730;10.010;2023-08-06T04:47:22;98994.41;;;13.46;100.00
20444;BME280;10381;53.730;10.010;2023-08-06T04:51:23;98992.16;;;13.49;100.00
20444;BME280;10381;53.730;10.010;2023-08-06T04:55:23;98984.59;;;13.53;100.00
20444;BME280;10381;53.730;10.010;2023-08-06T04:59:23;98980.09;;;13.53;100.00
20444;BME280;10381;53.730;10.010;2023-08-06T05:03:23;98978.06;;;13.55;100.00
20444;BME280;10381;53.730;10.010;2023-08-06T05:07:24;98980.72;;;13.55;100.00
20444;BME280;10381;53.730;10.010;2023-08-06T05:11:24;98988.53;;;13.57;100.00
20444;BME280;10381;53.730;10.010;2023-08-06T05:15:25;98987.94;;;13.61;100.00
20444;BME280;10381;53.730;10.010;2023-08-06T05:19:28;98984.25;;;13.69;100.00
20444;BME280;10381;53.730;10.010;2023-08-06T05:23:28;98972.59;;;13.70;100.00
20444;BME280;10381;53.730;10.010;2023-08-06T05:27:28;98959.50;;;13.82;100.00
20444;BME280;10381;53.730;10.010;2023-08-06T05:31:29;98953.41;;;13.88;100.00
20444;BME280;10381;53.730;10.010;2023-08-06T05:35:29;98949.91;;;13.94;100.00
20444;BME280;10381;53.730;10.010;2023-08-06T05:39:29;98941.34;;;14.05;100.00
20444;BME280;10381;53.730;10.010;2023-08-06T05:43:30;98935.00;;;14.13;100.00
20444;BME280;10381;53.730;10.010;2023-08-06T05:47:30;98934.38;;;14.18;100.00
20444;BME280;10381;53.730;10.010;2023-08-06T05:51:30;98930.28;;;14.22;100.00
20444;BME280;10381;53.730;10.010;2023-08-06T05:55:30;98934.59;;;14.23;100.00
20444;BME280;10381;53.730;10.010;2023-08-06T05:59:32;98928.84;;;14.26;100.00
20444;BME280;10381;53.730;10.010;2023-08-06T06:03:32;98925.97;;;14.34;100.00
20444;BME280;10381;53.730;10.010;2023-08-06T06:07:32;98916.75;;;14.43;100.00
20444;BME280;10381;53.730;10.010;2023-08-06T06:11:33;98917.97;;;14.47;100.00
20444;BME280;10381;53.730;10.010;2023-08-06T06:15:33;98916.53;;;14.52;100.00
20444;BME280;10381;53.730;10.010;2023-08-06T06:19:33;98920.03;;;14.59;100.00
20444;BME280;10381;53.730;10.010;2023-08-06T06:23:33;98919.63;;;14.62;100.00
20444;BME280;10381;53.730;10.010;2023-08-06T06:27:34;98915.94;;;14.63;100.00
20444;BME280;10381;53.730;10.010;2023-08-06T06:31:34;98926.00;;;14.61;100.00
20444;BME280;10381;53.730;10.010;2023-08-06T06:35:34;98922.28;;;14.62;100.00
20444;BME280;10381;53.730;10.010;2023-08-06T06:39:35;98928.47;;;14.62;100.00
20444;BME280;10381;53.730;10.010;2023-08-06T06:43:36;98935.59;;;14.68;100.00
20444;BME280;10381;53.730;10.010;2023-08-06T06:47:39;98951.81;;;14.60;100.00
20444;BME280;10381;53.730;10.010;2023-08-06T06:51:40;98936.03;;;14.59;100.00
20444;BME280;10381;53.730;10.010;2023-08-06T06:55:40;98947.50;;;14.66;100.00
20444;BME280;10381;53.730;10.010;2023-08-06T06:59:40;98954.06;;;14.63;100.00
20444;BME280;10381;53.730;10.010;2023-08-06T07:03:40;98963.31;;;14.61;100.00
20444;BME280;10381;53.730;10.010;2023-08-06T07:07:41;98974.16;;;14.46;100.00
20444;BME280;10381;53.730;10.010;2023-08-06T07:11:41;98990.75;;;14.48;100.00
20444;BME280;10381;53.730;10.010;2023-08-06T07:15:43;98996.66;;;14.50;100.00
20444;BME280;10381;53.730;10.010;2023-08-06T07:19:44;99015.78;;;14.60;100.00
20444;BME280;10381;53.730;10.010;2023-08-06T07:23:45;99035.25;;;14.74;100.00
20444;BME280;10381;53.730;10.010;2023-08-06T07:27:46;99030.53;;;14.76;100.00
20444;BME280;10381;53.730;10.010;2023-08-06T07:31:46;99024.59;;;14.81;100.00
20444;BME280;10381;53.730;10.010;2023-08-06T07:35:46;99021.88;;;15.01;100.00
20444;BME280;10381;53.730;10.010;2023-08-06T07:39:47;99013.25;;;15.25;100.00
20444;BME280;10381;53.730;10.010;2023-08-06T07:43:47;99015.41;;;15.48;100.00
20444;BME280;10381;53.730;10.010;2023-08-06T07:47:48;99004.63;;;15.82;100.00
20444;BME280;10381;53.730;10.010;2023-08-06T07:51:49;98998.00;;;15.91;100.00
20444;BME280;10381;53.730;10.010;2023-08-06T07:55:52;99001.50;;;15.91;100.00
20444;BME280;10381;53.730;10.010;2023-08-06T07:59:53;99002.41;;;16.10;100.00
20444;BME280;10381;53.730;10.010;2023-08-06T08:03:53;99008.38;;;16.12;100.00
20444;BME280;10381;53.730;10.010;2023-08-06T08:07:53;99002.91;;;16.26;100.00
20444;BME280;10381;53.730;10.010;2023-08-06T08:11:54;98985.41;;;16.87;100.00
20444;BME280;10381;53.730;10.010;2023-08-06T08:15:58;98986.66;;;16.84;100.00
20444;BME280;10381;53.730;10.010;2023-08-06T08:19:59;98951.00;;;16.90;100.00
20444;BME280;10381;53.730;10.010;2023-08-06T08:24:00;98865.13;;;16.98;100.00
20444;BME280;10381;53.730;10.010;2023-08-06T08:28:01;98749.31;;;17.10;100.00
20444;BME280;10381;53.730;10.010;2023-08-06T08:32:01;98596.81;;;17.21;100.00
20444;BME280;10381;53.730;10.010;2023-08-06T08:36:02;98407.66;;;17.51;100.00
20444;BME280;10381;53.730;10.010;2023-08-06T08:40:02;98231.47;;;17.64;100.00
20444;BME280;10381;53.730;10.010;2023-08-06T08:44:05;98011.03;;;17.54;100.00
20444;BME280;10381;53.730;10.010;2023-08-06T08:48:06;97854.09;;;17.48;100.00
20444;BME280;10381;53.730;10.010;2023-08-06T08:52:07;97673.25;;;17.57;100.00
20444;BME280;10381;53.730;10.010;2023-08-06T08:56:16;97654.69;;;17.82;100.00
20444;BME280;10381;53.730;10.010;2023-08-06T09:00:17;97736.22;;;17.97;100.00
20444;BME280;10381;53.730;10.010;2023-08-06T09:04:18;97813.31;;;18.32;100.00
20444;BME280;10381;53.730;10.010;2023-08-06T09:08:21;97957.09;;;18.48;100.00
20444;BME280;10381;53.730;10.010;2023-08-06T09:12:24;98094.88;;;18.47;100.00
20444;BME280;10381;53.730;10.010;2023-08-06T09:16:24;98175.56;;;18.46;100.00
20444;BME280;10381;53.730;10.010;2023-08-06T09:20:25;98197.81;;;18.24;100.00
20444;BME280;10381;53.730;10.010;2023-08-06T09:24:25;98281.97;;;18.23;100.00
20444;BME280;10381;53.730;10.010;2023-08-06T09:28:39;98285.63;;;18.39;100.00
20444;BME280;10381;53.730;10.010;2023-08-06T09:32:46;98409.88;;;18.45;100.00
20444;BME280;10381;53.730;10.010;2023-08-06T09:36:53;98478.81;;;18.49;100.00
20444;BME280;10381;53.730;10.010;2023-08-06T09:40:54;98481.66;;;18.26;100.00
20444;BME280;10381;53.730;10.010;2023-08-06T09:45:06;98493.47;;;18.13;100.00
20444;BME280;10381;53.730;10.010;2023-08-06T09:49:06;98521.19;;;18.19;100.00
20444;BME280;10381;53.730;10.010;2023-08-06T09:53:08;98537.91;;;18.09;100.00
20444;BME280;10381;53.730;10.010;2023-08-06T09:57:09;98529.34;;;17.95;100.00
20444;BME280;10381;53.730;10.010;2023-08-06T10:01:11;98505.94;;;17.91;100.00
20444;BME280;10381;53.730;10.010;2023-08-06T10:05:12;98509.63;;;17.61;100.00
20444;BME280;10381;53.730;10.010;2023-08-06T10:09:13;98482.63;;;17.51;100.00
20444;BME280;10381;53.730;10.010;2023-08-06T10:13:14;98437.28;;;17.44;100.00
20444;BME280;10381;53.730;10.010;2023-08-06T10:17:16;98375.78;;;17.20;100.00
20444;BME280;10381;53.730;10.010;2023-08-06T10:21:17;98328.16;;;17.06;100.00
20444;BME280;10381;53.730;10.010;2023-08-06T10:25:17;98245.06;;;16.83;100.00
20444;BME280;10381;53.730;10.010;2023-08-06T10:29:37;98171.84;;;16.73;100.00
20444;BME280;10381;53.730;10.010;2023-08-06T10:33:47;98091.94;;;16.59;100.00
20444;BME280;10381;53.730;10.010;2023-08-06T10:37:47;98018.16;;;16.58;100.00
20444;BME280;10381;53.730;10.010;2023-08-06T10:41:49;97950.91;;;16.67;100.00
20444;BME280;10381;53.730;10.010;2023-08-06T10:45:50;97923.28;;;16.78;100.00
20444;BME280;10381;53.730;10.010;2023-08-06T10:49:50;97910.47;;;16.97;100.00
20444;BME280;10381;53.730;10.010;2023-08-06T10:53:51;97909.81;;;17.07;100.00
20444;BME280;10381;53.730;10.010;2023-08-06T10:57:52;97909.50;;;17.25;100.00
20444;BME280;10381;53.730;10.010;2023-08-06T11:01:52;97920.50;;;17.07;100.00
20444;BME280;10381;53.730;10.010;2023-08-06T11:05:52;97934.44;;;17.09;100.00
20444;BME280;10381;53.730;10.010;2023-08-06T11:09:53;97941.78;;;16.96;100.00
20444;BME280;10381;53.730;10.010;2023-08-06T11:13:54;97941.72;;;17.13;100.00
20444;BME280;10381;53.730;10.010;2023-08-06T11:17:54;97953.94;;;17.26;100.00
20444;BME280;10381;53.730;10.010;2023-08-06T11:21:56;97958.25;;;17.76;100.00
20444;BME280;10381;53.730;10.010;2023-08-06T11:25:57;97995.59;;;17.83;100.00
20444;BME280;10381;53.730;10.010;2023-08-06T11:29:58;98061.94;;;17.59;100.00
20444;BME280;10381;53.730;10.010;2023-08-06T11:33:58;98108.72;;;17.17;100.00
20444;BME280;10381;53.730;10.010;2023-08-06T11:38:00;98097.69;;;17.31;100.00
20444;BME280;10381;53.730;10.010;2023-08-06T11:42:02;98109.47;;;17.68;100.00
20444;BME280;10381;53.730;10.010;2023-08-06T11:46:03;98166.28;;;17.20;100.00
20444;BME280;10381;53.730;10.010;2023-08-06T11:50:03;98151.81;;;17.55;100.00
20444;BME280;10381;53.730;10.010;2023-08-06T11:54:05;98138.25;;;17.78;100.00
20444;BME280;10381;53.730;10.010;2023-08-06T11:58:07;98146.84;;;17.97;100.00
20444;BME280;10381;53.730;10.010;2023-08-06T12:02:09;98168.56;;;18.23;100.00
20444;BME280;10381;53.730;10.010;2023-08-06T12:06:10;98217.00;;;18.60;100.00
20444;BME280;10381;53.730;10.010;2023-08-06T12:10:12;98270.25;;;18.51;100.00
20444;BME280;10381;53.730;10.010;2023-08-06T12:14:12;98360.69;;;18.39;100.00
20444;BME280;10381;53.730;10.010;2023-08-06T12:18:13;98423.03;;;19.46;100.00
20444;BME280;10381;53.730;10.010;2023-08-06T12:22:14;98625.94;;;19.76;100.00
20444;BME280;10381;53.730;10.010;2023-08-06T12:26:14;98788.28;;;19.97;100.00
20444;BME280;10381;53.730;10.010;2023-08-06T12:30:14;98838.28;;;19.81;100.00
20444;BME280;10381;53.730;10.010;2023-08-06T12:34:15;98850.56;;;19.94;100.00
20444;BME280;10381;53.730;10.010;2023-08-06T12:38:15;98909.94;;;19.75;100.00
20444;BME280;10381;53.730;10.010;2023-08-06T12:42:15;98895.47;;;20.27;100.00
20444;BME280;10381;53.730;10.010;2023-08-06T12:46:15;98932.94;;;20.51;100.00
20444;BME280;10381;53.730;10.010;2023-08-06T12:50:15;99082.69;;;19.52;100.00
20444;BME280;10381;53.730;10.010;2023-08-06T12:54:17;99022.44;;;20.00;100.00
20444;BME280;10381;53.730;10.010;2023-08-06T12:58:18;99037.50;;;20.30;100.00
20444;BME280;10381;53.730;10.010;2023-08-06T13:02:18;99051.19;;;20.74;100.00
20444;BME280;10381;53.730;10.010;2023-08-06T13:06:18;99099.72;;;20.79;100.00
20444;BME280;10381;53.730;10.010;2023-08-06T13:10:19;99138.03;;;20.00;100.00
20444;BME280;10381;53.730;10.010;2023-08-06T13:14:20;99128.19;;;20.18;100.00
20444;BME280;10381;53.730;10.010;2023-08-06T13:18:21;99098.22;;;20.26;100.00
20444;BME280;10381;53.730;10.010;2023-08-06T13:22:21;99080.81;;;20.46;100.00
20444;BME280;10381;53.730;10.010;2023-08-06T13:26:21;99104.13;;;20.69;100.00
20444;BME280;10381;53.730;10.010;2023-08-06T13:30:27;99164.41;;;21.35;100.00
20444;BME280;10381;53.730;10.010;2023-08-06T13:34:27;99226.78;;;21.27;100.00
20444;BME280;10381;53.730;10.010;2023-08-06T13:38:27;99278.75;;;21.11;100.00
20444;BME280;10381;53.730;10.010;2023-08-06T13:42:28;99304.50;;;19.48;100.00
20444;BME280;10381;53.730;10.010;2023-08-06T13:46:29;99200.56;;;19.61;100.00
20444;BME280;10381;53.730;10.010;2023-08-06T13:50:29;99134.13;;;18.48;100.00
20444;BME280;10381;53.730;10.010;2023-08-06T13:54:29;99017.09;;;18.12;100.00
20444;BME280;10381;53.730;10.010;2023-08-06T13:58:29;98942.94;;;18.60;100.00
20444;BME280;10381;53.730;10.010;2023-08-06T14:02:30;98948.56;;;18.04;100.00
20444;BME280;10381;53.730;10.010;2023-08-06T14:06:30;98867.22;;;16.71;100.00
20444;BME280;10381;53.730;10.010;2023-08-06T14:10:31;98756.22;;;16.50;100.00
20444;BME280;10381;53.730;10.010;2023-08-06T14:14:32;98692.72;;;15.97;100.00
20444;BME280;10381;53.730;10.010;2023-08-06T14:18:32;98602.91;;;16.14;100.00
20444;BME280;10381;53.730;10.010;2023-08-06T14:22:32;98560.59;;;16.11;100.00
20444;BME280;10381;53.730;10.010;2023-08-06T14:26:33;98520.47;;;16.18;100.00
20444;BME280;10381;53.730;10.010;2023-08-06T14:30:34;98502.63;;;16.00;100.00
20444;BME280;10381;53.730;10.010;2023-08-06T14:34:34;98497.56;;;16.10;100.00
20444;BME280;10381;53.730;10.010;2023-08-06T14:38:35;98500.06;;;16.24;100.00
20444;BME280;10381;53.730;10.010;2023-08-06T14:42:35;98516.72;;;16.07;100.00
20444;BME280;10381;53.730;10.010;2023-08-06T14:46:35;98527.81;;;16.34;100.00
20444;BME280;10381;53.730;10.010;2023-08-06T14:50:36;98537.34;;;16.30;100.00
20444;BME280;10381;53.730;10.010;2023-08-06T14:54:36;98533.19;;;16.34;100.00
20444;BME280;10381;53.730;10.010;2023-08-06T14:58:36;98554.03;;;16.26;100.00
20444;BME280;10381;53.730;10.010;2023-08-06T15:02:37;98571.19;;;16.78;100.00
20444;BME280;10381;53.730;10.010;2023-08-06T15:06:37;98618.47;;;16.78;100.00
20444;BME280;10381;53.730;10.010;2023-08-06T15:10:38;98638.47;;;16.75;100.00
20444;BME280;10381;53.730;10.010;2023-08-06T15:14:40;98640.66;;;16.97;100.00
20444;BME280;10381;53.730;10.010;2023-08-06T15:18:40;98672.41;;;16.75;100.00
20444;BME280;10381;53.730;10.010;2023-08-06T15:22:40;98663.59;;;16.74;100.00
20444;BME280;10381;53.730;10.010;2023-08-06T15:26:41;98658.31;;;16.98;100.00
20444;BME280;10381;53.730;10.010;2023-08-06T15:30:48;98672.63;;;16.92;100.00
20444;BME280;10381;53.730;10.010;2023-08-06T15:34:49;98694.50;;;16.70;100.00
20444;BME280;10381;53.730;10.010;2023-08-06T15:38:50;98666.63;;;17.08;100.00
20444;BME280;10381;53.730;10.010;2023-08-06T15:42:50;98691.84;;;17.00;100.00
20444;BME280;10381;53.730;10.010;2023-08-06T15:46:50;98707.59;;;17.20;100.00
20444;BME280;10381;53.730;10.010;2023-08-06T15:50:51;98747.63;;;17.27;100.00
20444;BME280;10381;53.730;10.010;2023-08-06T15:54:51;98788.63;;;17.39;100.00
20444;BME280;10381;53.730;10.010;2023-08-06T15:58:51;98802.97;;;17.57;100.00
20444;BME280;10381;53.730;10.010;2023-08-06T16:02:52;98839.41;;;17.58;100.00
20444;BME280;10381;53.730;10.010;2023-08-06T16:06:52;98863.44;;;17.34;100.00
20444;BME280;10381;53.730;10.010;2023-08-06T16:10:52;98852.72;;;17.34;100.00
20444;BME280;10381;53.730;10.010;2023-08-06T16:14:53;98863.59;;;17.21;100.00
20444;BME280;10381;53.730;10.010;2023-08-06T16:18:53;98827.94;;;17.39;100.00
20444;BME280;10381;53.730;10.010;2023-08-06T16:22:53;98827.94;;;17.09;100.00
20444;BME280;10381;53.730;10.010;2023-08-06T16:26:53;98829.22;;;17.06;100.00
20444;BME280;10381;53.730;10.010;2023-08-06T16:30:54;98843.22;;;17.50;100.00
20444;BME280;10381;53.730;10.010;2023-08-06T16:34:54;98873.47;;;17.51;100.00
20444;BME280;10381;53.730;10.010;2023-08-06T16:38:54;98880.84;;;17.25;100.00
20444;BME280;10381;53.730;10.010;2023-08-06T16:42:56;98876.31;;;17.56;100.00
20444;BME280;10381;53.730;10.010;2023-08-06T16:46:57;98873.53;;;17.93;100.00
20444;BME280;10381;53.730;10.010;2023-08-06T16:51:02;98926.28;;;17.92;100.00
20444;BME280;10381;53.730;10.010;2023-08-06T16:55:03;98950.34;;;18.22;100.00
20444;BME280;10381;53.730;10.010;2023-08-06T16:59:04;98997.22;;;17.71;100.00
20444;BME280;10381;53.730;10.010;2023-08-06T17:03:04;98999.75;;;17.66;100.00
20444;BME280;10381;53.730;10.010;2023-08-06T17:07:05;99012.56;;;17.64;100.00
20444;BME280;10381;53.730;10.010;2023-08-06T17:11:05;99018.78;;;17.76;100.00
20444;BME280;10381;53.730;10.010;2023-08-06T17:15:06;99059.34;;;17.80;100.00
20444;BME280;10381;53.730;10.010;2023-08-06T17:19:06;99107.63;;;17.73;100.00
20444;BME280;10381;53.730;10.010;2023-08-06T17:23:07;99119.03;;;17.43;100.00
20444;BME280;10381;53.730;10.010;2023-08-06T17:27:07;99136.44;;;17.34;100.00
20444;BME280;10381;53.730;10.010;2023-08-06T17:31:07;99157.59;;;17.17;100.00
20444;BME280;10381;53.730;10.010;2023-08-06T17:35:07;99149.72;;;17.22;100.00
20444;BME280;10381;53.730;10.010;2023-08-06T17:39:08;99155.34;;;17.14;100.00
20444;BME280;10381;53.730;10.010;2023-08-06T17:43:08;99147.25;;;16.96;100.00
20444;BME280;10381;53.730;10.010;2023-08-06T17:47:09;99067.66;;;16.91;100.00
20444;BME280;10381;53.730;10.010;2023-08-06T17:51:09;99001.56;;;16.67;100.00
20444;BME280;10381;53.730;10.010;2023-08-06T17:55:09;98960.13;;;16.57;100.00
20444;BME280;10381;53.730;10.010;2023-08-06T17:59:10;98937.94;;;16.32;100.00
20444;BME280;10381;53.730;10.010;2023-08-06T18:03:10;98922.19;;;16.24;100.00
20444;BME280;10381;53.730;10.010;2023-08-06T18:07:10;98906.56;;;16.21;100.00
20444;BME280;10381;53.730;10.010;2023-08-06T18:11:11;98909.09;;;16.15;100.00
20444;BME280;10381;53.730;10.010;2023-08-06T18:15:11;98909.56;;;16.06;100.00
20444;BME280;10381;53.730;10.010;2023-08-06T18:19:12;98916.28;;;15.90;100.00
20444;BME280;10381;53.730;10.010;2023-08-06T18:23:12;98900.00;;;15.91;100.00
20444;BME280;10381;53.730;10.010;2023-08-06T18:27:13;98900.69;;;15.80;100.00
20444;BME280;10381;53.730;10.010;2023-08-06T18:31:17;98885.13;;;15.77;100.00
20444;BME280;10381;53.730;10.010;2023-08-06T18:35:17;98885.75;;;15.72;100.00
20444;BME280;10381;53.730;10.010;2023-08-06T18:39:18;98865.25;;;15.66;100.00
20444;BME280;10381;53.730;10.010;2023-08-06T18:43:18;98859.94;;;15.60;100.00
20444;BME280;10381;53.730;10.010;2023-08-06T18:47:18;98853.22;;;15.50;100.00
20444;BME280;10381;53.730;10.010;2023-08-06T18:51:18;98834.19;;;15.47;100.00
20444;BME280;10381;53.730;10.010;2023-08-06T18:55:20;98834.75;;;15.49;100.00
20444;BME280;10381;53.730;10.010;2023-08-06T18:59:20;98829.50;;;15.36;100.00
20444;BME280;10381;53.730;10.010;2023-08-06T19:03:22;98805.72;;;15.34;100.00
20444;BME280;10381;53.730;10.010;2023-08-06T19:07:22;98804.72;;;15.28;100.00
20444;BME280;10381;53.730;10.010;2023-08-06T19:11:23;98800.03;;;15.24;100.00
20444;BME280;10381;53.730;10.010;2023-08-06T19:15:23;98780.97;;;15.20;100.00
20444;BME280;10381;53.730;10.010;2023-08-06T19:19:23;98767.66;;;15.20;100.00
20444;BME280;10381;53.730;10.010;2023-08-06T19:23:23;98768.06;;;15.17;100.00
20444;BME280;10381;53.730;10.010;2023-08-06T19:27:27;98752.06;;;15.17;100.00
20444;BME280;10381;53.730;10.010;2023-08-06T19:31:27;98734.03;;;15.12;100.00
20444;BME280;10381;53.730;10.010;2023-08-06T19:35:28;98718.47;;;15.09;100.00
20444;BME280;10381;53.730;10.010;2023-08-06T19:39:28;98699.59;;;15.11;100.00
20444;BME280;10381;53.730;10.010;2023-08-06T19:43:28;98686.09;;;15.06;100.00
20444;BME280;10381;53.730;10.010;2023-08-06T19:47:29;98666.56;;;15.05;100.00
20444;BME280;10381;53.730;10.010;2023-08-06T19:51:29;98651.19;;;15.07;100.00
20444;BME280;10381;53.730;10.010;2023-08-06T19:55:29;98627.34;;;15.12;100.00
20444;BME280;10381;53.730;10.010;2023-08-06T19:59:29;98610.94;;;15.16;100.00
20444;BME280;10381;53.730;10.010;2023-08-06T20:03:30;98592.75;;;15.06;100.00
20444;BME280;10381;53.730;10.010;2023-08-06T20:07:33;98570.22;;;15.02;100.00
20444;BME280;10381;53.730;10.010;2023-08-06T20:11:33;98563.84;;;15.03;100.00
20444;BME280;10381;53.730;10.010;2023-08-06T20:15:37;98556.88;;;15.02;100.00
20444;BME280;10381;53.730;10.010;2023-08-06T20:19:38;98527.34;;;15.03;100.00
20444;BME280;10381;53.730;10.010;2023-08-06T20:23:40;98527.75;;;15.00;100.00
20444;BME280;10381;53.730;10.010;2023-08-06T20:27:41;98515.84;;;15.03;100.00
20444;BME280;10381;53.730;10.010;2023-08-06T20:31:41;98508.72;;;14.97;100.00
20444;BME280;10381;53.730;10.010;2023-08-06T20:35:41;98522.66;;;14.99;100.00
20444;BME280;10381;53.730;10.010;2023-08-06T20:39:42;98516.50;;;14.98;100.00
20444;BME280;10381;53.730;10.010;2023-08-06T20:43:42;98510.75;;;15.01;100.00